Terminal Aerodrome Forecast
Issued by NWS Sterling, VA

Home | Current Version | Previous Version | Text Only | Print | Product List | Glossary On
Versions: 1 2 3 4 5 6 7 8 9 10 11 12 13 14 15 16 17 18 19 20 21 22 23 24 25 26 27
000
FTUS41 KLWX 212300
TAFIAD
TAF
KIAD 212332Z 2200/2306 33005KT P6SM -SHRA OVC040
     FM220200 32007KT P6SM OVC040
     FM220600 33008KT 5SM -SHRA OVC015
     FM220900 34012KT 5SM -SHRA SCT008 OVC015
     FM221200 34015G23KT P6SM SCT008 OVC015
     FM222000 34016G25KT P6SM BKN030
     FM230000 33015G25KT P6SM BKN040=

USA.gov is the U.S. government's official web portal to all federal, state and local government web resources and services.